Time;durP1;ratioP1;P1;durP2;ratioP2;P2;SDS_P1;SDS_P2;PMS_P1;PMS_P2;Temp;Humidity;BMP_temperature;BMP_pressure;BME280_temperature;BME280_humidity;BME280_pressure;Samples;Min_cycle;Max_cycle;Signal;HPM_P1;HPM_P2
2021/11/07 00:02:32;;;;;;;3.33;1.90;;;;;;;;;;5048766;28;20218;-77
2021/11/07 00:05:03;;;;;;;2.10;1.80;;;;;;;;;;5042583;28;20199;-78
2021/11/07 00:07:40;;;;;;;2.28;1.95;;;;;;;;;;5031693;28;20206;-80
2021/11/07 00:10:12;;;;;;;3.80;1.55;;;;;;;;;;5058489;28;20550;-78
2021/11/07 00:12:42;;;;;;;2.17;1.60;;;;;;;;;;5043587;28;20230;-78
2021/11/07 00:15:09;;;;;;;3.00;1.30;;;;;;;;;;5049703;28;20209;-80
2021/11/07 00:17:38;;;;;;;2.58;1.88;;;;;;;;;;5050649;28;20191;-79
2021/11/07 00:22:53;;;;;;;1.83;1.73;;;;;;;;;;5063060;28;20412;-76
2021/11/07 00:25:25;;;;;;;1.98;1.38;;;;;;;;;;5047554;28;20219;-77
2021/11/07 00:27:56;;;;;;;1.90;1.67;;;;;;;;;;5043229;28;20226;-78
2021/11/07 00:30:32;;;;;;;3.15;1.40;;;;;;;;;;5053662;28;20297;-77
2021/11/07 00:33:14;;;;;;;1.80;1.70;;;;;;;;;;5034153;28;20197;-77
2021/11/07 00:38:35;;;;;;;2.97;1.67;;;;;;;;;;5042593;28;20218;-77
2021/11/07 00:41:10;;;;;;;2.38;1.58;;;;;;;;;;5041262;28;20199;-77
2021/11/07 00:43:42;;;;;;;1.75;1.40;;;;;;;;;;5052978;28;20202;-77
2021/11/07 00:46:15;;;;;;;1.70;1.50;;;;;;;;;;5055024;28;20645;-76
2021/11/07 00:48:46;;;;;;;11.63;1.90;;;;;;;;;;5058924;28;20723;-77
2021/11/07 00:51:18;;;;;;;2.55;1.35;;;;;;;;;;5052304;28;20202;-76
2021/11/07 00:53:51;;;;;;;4.18;2.45;;;;;;;;;;5050883;28;20277;-75
2021/11/07 00:56:23;;;;;;;3.17;1.63;;;;;;;;;;5043575;28;20666;-77
2021/11/07 00:59:07;;;;;;;2.20;1.60;;;;;;;;;;5053244;28;20302;-77
2021/11/07 01:01:37;;;;;;;2.67;2.25;;;;;;;;;;5048835;28;20198;-77
2021/11/07 01:04:10;;;;;;;2.88;1.60;;;;;;;;;;5053709;28;20241;-78
2021/11/07 01:06:37;;;;;;;1.95;1.70;;;;;;;;;;5052442;28;20267;-78
2021/11/07 01:09:04;;;;;;;1.55;1.45;;;;;;;;;;5054276;28;20205;-78
2021/11/07 01:11:32;;;;;;;1.60;1.50;;;;;;;;;;5047178;28;20199;-76
2021/11/07 01:13:59;;;;;;;2.08;1.40;;;;;;;;;;5054012;28;20191;-77
2021/11/07 01:16:26;;;;;;;3.15;1.65;;;;;;;;;;5054156;28;20242;-77
2021/11/07 01:18:54;;;;;;;1.90;1.30;;;;;;;;;;5052817;28;20621;-77
2021/11/07 01:21:24;;;;;;;2.40;1.58;;;;;;;;;;5041291;28;20187;-76
2021/11/07 01:23:57;;;;;;;1.98;1.67;;;;;;;;;;5054886;28;20289;-77
2021/11/07 01:26:28;;;;;;;2.42;1.70;;;;;;;;;;5047852;28;20572;-77
2021/11/07 01:29:00;;;;;;;3.30;1.50;;;;;;;;;;5044929;28;20196;-76
2021/11/07 01:31:28;;;;;;;3.65;1.63;;;;;;;;;;5053293;28;20725;-76
2021/11/07 01:33:57;;;;;;;2.40;1.52;;;;;;;;;;5048945;28;20222;-76
2021/11/07 01:36:32;;;;;;;3.33;2.10;;;;;;;;;;5052375;28;20590;-76
2021/11/07 01:39:06;;;;;;;2.28;1.70;;;;;;;;;;5057138;28;20198;-76
2021/11/07 01:41:40;;;;;;;1.70;1.60;;;;;;;;;;5052323;28;20660;-76
2021/11/07 01:44:08;;;;;;;1.70;1.40;;;;;;;;;;5046845;28;20199;-76
2021/11/07 01:46:38;;;;;;;2.08;1.70;;;;;;;;;;5053785;28;20214;-77
2021/11/07 01:49:09;;;;;;;1.73;1.35;;;;;;;;;;5054216;28;20191;-77
2021/11/07 01:51:45;;;;;;;1.90;1.65;;;;;;;;;;5050204;28;20199;-76
2021/11/07 01:54:20;;;;;;;2.60;1.60;;;;;;;;;;5053458;28;21134;-77
2021/11/07 01:56:48;;;;;;;2.20;2.00;;;;;;;;;;5043035;28;20201;-77
2021/11/07 01:59:15;;;;;;;2.85;1.40;;;;;;;;;;5045771;28;20211;-79
2021/11/07 02:01:42;;;;;;;1.95;1.40;;;;;;;;;;5052040;28;20191;-78
2021/11/07 02:04:09;;;;;;;2.50;1.83;;;;;;;;;;5050848;28;20196;-76
2021/11/07 02:06:38;;;;;;;1.95;1.40;;;;;;;;;;5054527;28;20226;-76
2021/11/07 02:09:05;;;;;;;3.00;1.98;;;;;;;;;;5054217;28;20183;-78
2021/11/07 02:11:32;;;;;;;2.17;1.98;;;;;;;;;;5042789;28;20191;-76
2021/11/07 02:13:59;;;;;;;5.50;1.63;;;;;;;;;;5050466;28;20198;-77
2021/11/07 02:16:26;;;;;;;1.95;1.75;;;;;;;;;;5052731;28;20226;-76
2021/11/07 02:18:55;;;;;;;1.90;1.25;;;;;;;;;;5056619;28;20190;-77
2021/11/07 02:21:23;;;;;;;2.15;1.70;;;;;;;;;;5039540;28;20203;-76
2021/11/07 02:23:50;;;;;;;1.95;1.60;;;;;;;;;;5035690;28;20227;-77
2021/11/07 02:26:19;;;;;;;4.20;2.25;;;;;;;;;;5045644;28;20273;-78
2021/11/07 02:28:47;;;;;;;2.00;1.80;;;;;;;;;;5057406;28;20232;-76
2021/11/07 02:31:17;;;;;;;2.30;1.70;;;;;;;;;;5052306;28;20222;-76
2021/11/07 02:33:44;;;;;;;2.53;2.05;;;;;;;;;;5050495;28;20199;-76
2021/11/07 02:36:12;;;;;;;1.70;1.58;;;;;;;;;;5046622;28;20191;-76
2021/11/07 02:38:41;;;;;;;3.08;2.20;;;;;;;;;;5051257;28;20499;-76
2021/11/07 02:41:09;;;;;;;1.88;1.77;;;;;;;;;;5032667;28;20254;-76
2021/11/07 02:43:40;;;;;;;2.65;1.90;;;;;;;;;;5033317;28;20199;-76
2021/11/07 02:46:07;;;;;;;5.03;1.90;;;;;;;;;;5047547;28;20238;-76
2021/11/07 02:48:34;;;;;;;1.65;1.52;;;;;;;;;;5048293;28;20199;-77
2021/11/07 02:51:01;;;;;;;2.30;2.05;;;;;;;;;;5049369;28;20206;-77
2021/11/07 02:53:28;;;;;;;2.78;2.58;;;;;;;;;;5052066;28;20194;-77
2021/11/07 02:55:57;;;;;;;1.67;1.58;;;;;;;;;;5052799;28;20206;-76
2021/11/07 02:58:24;;;;;;;2.58;1.60;;;;;;;;;;5053378;28;20187;-76
2021/11/07 03:00:51;;;;;;;2.58;2.38;;;;;;;;;;5050771;28;20266;-77
2021/11/07 03:03:18;;;;;;;1.48;1.38;;;;;;;;;;5052280;28;20237;-77
2021/11/07 03:05:45;;;;;;;2.25;2.05;;;;;;;;;;5041135;28;20218;-76
2021/11/07 03:08:12;;;;;;;2.15;1.92;;;;;;;;;;5044252;28;20198;-77
2021/11/07 03:10:40;;;;;;;2.63;2.42;;;;;;;;;;5046790;28;20200;-77
2021/11/07 03:13:09;;;;;;;1.67;1.58;;;;;;;;;;5049483;28;20190;-76
2021/11/07 03:15:39;;;;;;;1.88;1.77;;;;;;;;;;5052855;28;20608;-76
2021/11/07 03:18:07;;;;;;;2.30;2.10;;;;;;;;;;5057932;28;20260;-76
2021/11/07 03:20:34;;;;;;;2.95;2.00;;;;;;;;;;5043766;28;20202;-76
2021/11/07 03:23:01;;;;;;;4.13;2.05;;;;;;;;;;5051671;28;20199;-76
2021/11/07 03:25:28;;;;;;;2.45;1.85;;;;;;;;;;5049199;28;20195;-76
2021/11/07 03:27:56;;;;;;;2.63;2.13;;;;;;;;;;5039691;28;20223;-76
2021/11/07 03:30:35;;;;;;;1.88;1.77;;;;;;;;;;5043614;28;20218;-76
2021/11/07 03:33:12;;;;;;;2.83;2.00;;;;;;;;;;5051636;28;20712;-77
2021/11/07 03:35:41;;;;;;;2.60;2.03;;;;;;;;;;5035553;28;20635;-78
2021/11/07 03:38:08;;;;;;;2.15;1.95;;;;;;;;;;5051109;28;20206;-78
2021/11/07 03:40:36;;;;;;;3.03;2.78;;;;;;;;;;5045573;28;20200;-78
2021/11/07 03:43:03;;;;;;;2.30;2.10;;;;;;;;;;5032301;28;20192;-78
2021/11/07 03:45:32;;;;;;;2.90;2.60;;;;;;;;;;5046368;28;20518;-77
2021/11/07 03:47:59;;;;;;;2.50;2.30;;;;;;;;;;5050917;28;20218;-78
2021/11/07 03:50:27;;;;;;;2.55;2.10;;;;;;;;;;5037968;28;20200;-77
2021/11/07 03:52:54;;;;;;;2.33;2.13;;;;;;;;;;5040911;28;20230;-77
2021/11/07 03:55:21;;;;;;;3.13;2.80;;;;;;;;;;5039008;28;20198;-80
2021/11/07 03:57:49;;;;;;;2.70;2.50;;;;;;;;;;5042480;28;20195;-79
2021/11/07 04:00:17;;;;;;;3.72;2.55;;;;;;;;;;5035418;28;20220;-79
2021/11/07 04:02:46;;;;;;;2.78;2.58;;;;;;;;;;5046855;28;20210;-80
2021/11/07 04:05:13;;;;;;;3.95;3.40;;;;;;;;;;5049485;28;20198;-79
2021/11/07 04:07:41;;;;;;;6.65;3.40;;;;;;;;;;5047620;28;20245;-79
2021/11/07 04:10:09;;;;;;;3.65;3.17;;;;;;;;;;5038888;28;20198;-77
2021/11/07 04:12:36;;;;;;;3.13;2.83;;;;;;;;;;5031802;28;20199;-78
2021/11/07 04:15:04;;;;;;;8.35;3.50;;;;;;;;;;5046401;28;20198;-78
2021/11/07 04:17:32;;;;;;;4.55;3.15;;;;;;;;;;5050012;28;20207;-77
2021/11/07 04:20:00;;;;;;;4.47;3.65;;;;;;;;;;5040711;28;20202;-78
2021/11/07 04:22:27;;;;;;;3.50;3.20;;;;;;;;;;5050798;28;20577;-77
2021/11/07 04:24:55;;;;;;;4.18;2.67;;;;;;;;;;5050929;28;20191;-78
2021/11/07 04:27:23;;;;;;;3.83;3.53;;;;;;;;;;5042412;28;20226;-78
2021/11/07 04:29:50;;;;;;;3.47;2.97;;;;;;;;;;5050453;28;20252;-78
2021/11/07 04:32:17;;;;;;;3.00;2.75;;;;;;;;;;5051225;28;20218;-78
2021/11/07 04:34:44;;;;;;;3.60;3.30;;;;;;;;;;5041251;28;20650;-78
2021/11/07 04:37:13;;;;;;;3.25;2.70;;;;;;;;;;5038897;28;20202;-78
2021/11/07 04:39:40;;;;;;;3.25;2.90;;;;;;;;;;5045138;28;20195;-77
2021/11/07 04:42:07;;;;;;;4.05;3.65;;;;;;;;;;5033188;28;20199;-80
2021/11/07 04:44:34;;;;;;;4.35;2.95;;;;;;;;;;5045340;28;20210;-77
2021/11/07 04:47:02;;;;;;;4.78;3.58;;;;;;;;;;5048358;28;20250;-76
2021/11/07 04:49:29;;;;;;;5.55;3.80;;;;;;;;;;5050041;28;20227;-76
2021/11/07 04:51:56;;;;;;;3.67;3.38;;;;;;;;;;5031773;28;20199;-77
2021/11/07 04:54:24;;;;;;;5.43;4.20;;;;;;;;;;5041056;28;20506;-76
2021/11/07 04:56:52;;;;;;;5.10;3.85;;;;;;;;;;5036418;28;20605;-77
2021/11/07 04:59:19;;;;;;;4.05;3.75;;;;;;;;;;5045541;28;20553;-76
2021/11/07 05:01:47;;;;;;;4.65;3.63;;;;;;;;;;5050586;28;20236;-77
2021/11/07 05:04:14;;;;;;;4.65;4.20;;;;;;;;;;5048933;28;20653;-76
2021/11/07 05:06:41;;;;;;;4.20;3.53;;;;;;;;;;5048167;28;20223;-78
2021/11/07 05:09:08;;;;;;;5.13;3.75;;;;;;;;;;5047597;28;20372;-79
2021/11/07 05:11:38;;;;;;;3.92;3.40;;;;;;;;;;5032730;28;20203;-78
2021/11/07 05:14:05;;;;;;;3.55;3.33;;;;;;;;;;5048929;28;20202;-78
2021/11/07 05:16:32;;;;;;;4.45;3.20;;;;;;;;;;5049548;28;20219;-78
2021/11/07 05:19:00;;;;;;;4.63;3.67;;;;;;;;;;5045624;28;20189;-78
2021/11/07 05:21:27;;;;;;;6.70;3.00;;;;;;;;;;5051145;28;20202;-78
2021/11/07 05:23:54;;;;;;;4.97;3.72;;;;;;;;;;5048768;28;20198;-78
2021/11/07 05:26:21;;;;;;;4.32;3.95;;;;;;;;;;5051452;28;20821;-77
2021/11/07 05:28:50;;;;;;;3.75;3.45;;;;;;;;;;5053372;28;20223;-77
2021/11/07 05:31:18;;;;;;;4.32;3.92;;;;;;;;;;5053098;28;20183;-80
2021/11/07 05:33:45;;;;;;;3.58;3.28;;;;;;;;;;5057331;28;20205;-76
2021/11/07 05:36:12;;;;;;;3.70;3.50;;;;;;;;;;5074537;28;20202;-76
2021/11/07 05:38:40;;;;;;;6.00;4.55;;;;;;;;;;5062163;28;20199;-77
2021/11/07 05:41:07;;;;;;;4.82;3.40;;;;;;;;;;5043835;28;20200;-76
2021/11/07 05:43:34;;;;;;;4.05;3.40;;;;;;;;;;5050265;28;20553;-77
2021/11/07 05:46:02;;;;;;;4.65;3.58;;;;;;;;;;5050770;28;20207;-79
2021/11/07 05:48:29;;;;;;;3.95;3.65;;;;;;;;;;5049810;28;20248;-79
2021/11/07 05:50:57;;;;;;;5.47;4.28;;;;;;;;;;5050623;28;20213;-78
2021/11/07 05:53:24;;;;;;;4.05;3.70;;;;;;;;;;5052236;28;20665;-77
2021/11/07 05:55:52;;;;;;;3.85;3.47;;;;;;;;;;5052272;28;20198;-77
2021/11/07 05:58:19;;;;;;;4.65;3.88;;;;;;;;;;5053446;28;20187;-77
2021/11/07 06:00:46;;;;;;;3.67;3.38;;;;;;;;;;5052560;28;20276;-76
2021/11/07 06:03:15;;;;;;;3.95;3.20;;;;;;;;;;5047373;28;20202;-77
2021/11/07 06:05:42;;;;;;;3.60;3.30;;;;;;;;;;5039502;28;20286;-77
2021/11/07 06:08:09;;;;;;;5.65;4.38;;;;;;;;;;5056257;28;20210;-76
2021/11/07 06:10:36;;;;;;;4.60;4.15;;;;;;;;;;5055590;28;20199;-77
2021/11/07 06:13:04;;;;;;;4.35;3.78;;;;;;;;;;5037946;28;20194;-77
2021/11/07 06:15:31;;;;;;;4.00;3.70;;;;;;;;;;5053219;28;20194;-77
2021/11/07 06:17:58;;;;;;;3.70;3.33;;;;;;;;;;5042749;28;20650;-77
2021/11/07 06:20:27;;;;;;;4.80;4.40;;;;;;;;;;5041751;28;20194;-76
2021/11/07 06:22:54;;;;;;;4.18;3.78;;;;;;;;;;5053569;28;20202;-76
2021/11/07 06:25:21;;;;;;;4.35;3.95;;;;;;;;;;5052903;28;20195;-76
2021/11/07 06:27:49;;;;;;;3.83;3.53;;;;;;;;;;5048922;28;20210;-78
2021/11/07 06:30:16;;;;;;;4.05;3.45;;;;;;;;;;5052469;28;20249;-77
2021/11/07 06:32:43;;;;;;;4.00;3.03;;;;;;;;;;5054359;28;20194;-76
2021/11/07 06:35:12;;;;;;;4.53;4.05;;;;;;;;;;5042039;28;20195;-77
2021/11/07 06:37:40;;;;;;;4.97;3.90;;;;;;;;;;5048889;28;20199;-77
2021/11/07 06:40:09;;;;;;;4.18;3.78;;;;;;;;;;5050025;28;20278;-77
2021/11/07 06:42:36;;;;;;;3.50;3.22;;;;;;;;;;5033288;28;20191;-78
2021/11/07 06:45:04;;;;;;;3.72;3.42;;;;;;;;;;5056828;28;20205;-77
2021/11/07 06:47:31;;;;;;;3.97;3.65;;;;;;;;;;5061731;28;20222;-78
2021/11/07 06:49:58;;;;;;;3.88;3.53;;;;;;;;;;5048220;28;20199;-80
2021/11/07 06:52:26;;;;;;;4.22;3.83;;;;;;;;;;5056635;28;20190;-79
2021/11/07 06:54:54;;;;;;;4.07;3.78;;;;;;;;;;5044043;28;20333;-81
2021/11/07 06:57:21;;;;;;;4.13;3.72;;;;;;;;;;5039230;28;20791;-79
2021/11/07 06:59:48;;;;;;;4.63;3.35;;;;;;;;;;5040037;28;20222;-79
2021/11/07 07:02:16;;;;;;;4.30;3.88;;;;;;;;;;5050856;28;20195;-77
2021/11/07 07:04:43;;;;;;;4.68;3.75;;;;;;;;;;5055073;28;20653;-79
2021/11/07 07:07:12;;;;;;;4.10;3.75;;;;;;;;;;5043522;28;20191;-79
2021/11/07 07:09:45;;;;;;;3.70;3.40;;;;;;;;;;5051766;28;20199;-79
2021/11/07 07:12:17;;;;;;;4.13;3.72;;;;;;;;;;5044792;28;20643;-79
2021/11/07 07:14:50;;;;;;;3.85;3.55;;;;;;;;;;5045688;28;20209;-79
2021/11/07 07:17:24;;;;;;;3.67;3.38;;;;;;;;;;5047838;28;20187;-77
2021/11/07 07:20:05;;;;;;;3.67;3.38;;;;;;;;;;5047115;28;20194;-77
2021/11/07 07:23:11;;;;;;;3.95;3.08;;;;;;;;;;5050410;28;20606;-76
2021/11/07 07:26:03;;;;;;;5.97;4.32;;;;;;;;;;5048791;28;20664;-76
2021/11/07 07:28:48;;;;;;;4.40;4.00;;;;;;;;;;5049936;28;20218;-77
2021/11/07 07:31:34;;;;;;;4.40;3.53;;;;;;;;;;5050795;28;20214;-79
2021/11/07 07:34:05;;;;;;;4.00;3.67;;;;;;;;;;5050719;28;20198;-80
2021/11/07 07:36:32;;;;;;;5.78;4.32;;;;;;;;;;5051903;28;20286;-79
2021/11/07 07:38:59;;;;;;;5.38;4.13;;;;;;;;;;5052300;28;20523;-80
2021/11/07 07:41:27;;;;;;;4.88;4.45;;;;;;;;;;5049346;28;20199;-83
2021/11/07 07:43:56;;;;;;;7.72;5.45;;;;;;;;;;5048101;28;20244;-78
2021/11/07 07:46:25;;;;;;;6.72;3.95;;;;;;;;;;5047677;28;20249;-77
2021/11/07 07:48:54;;;;;;;3.95;3.20;;;;;;;;;;5044599;28;20219;-78
2021/11/07 07:51:22;;;;;;;5.70;3.83;;;;;;;;;;5043358;28;20198;-79
2021/11/07 07:53:50;;;;;;;5.50;3.58;;;;;;;;;;5050499;28;20278;-80
2021/11/07 07:56:17;;;;;;;4.60;4.20;;;;;;;;;;5043343;28;20186;-82
2021/11/07 07:58:44;;;;;;;4.65;4.25;;;;;;;;;;5051687;28;20199;-81
2021/11/07 08:01:12;;;;;;;4.60;4.20;;;;;;;;;;5049047;28;20219;-79
2021/11/07 08:03:39;;;;;;;6.45;4.60;;;;;;;;;;5046881;28;20708;-81
2021/11/07 08:06:06;;;;;;;4.07;3.67;;;;;;;;;;5051760;28;20199;-84
2021/11/07 08:08:34;;;;;;;4.53;3.90;;;;;;;;;;5051087;28;20234;-80
2021/11/07 08:11:01;;;;;;;4.30;3.90;;;;;;;;;;5041820;28;20200;-80
2021/11/07 08:13:28;;;;;;;3.85;3.40;;;;;;;;;;5040078;28;20195;-80
2021/11/07 08:15:56;;;;;;;7.80;4.32;;;;;;;;;;5048197;28;20581;-79
2021/11/07 08:18:24;;;;;;;3.20;2.90;;;;;;;;;;5050473;28;20565;-85
2021/11/07 08:20:51;;;;;;;3.53;3.22;;;;;;;;;;5049061;28;20562;-83
2021/11/07 08:23:21;;;;;;;4.60;3.65;;;;;;;;;;5049901;28;20677;-78
2021/11/07 08:25:48;;;;;;;4.80;3.50;;;;;;;;;;5042593;28;20555;-79
2021/11/07 08:28:34;;;;;;;3.97;3.60;;;;;;;;;;5037889;28;20211;-78
2021/11/07 08:31:06;;;;;;;4.40;3.28;;;;;;;;;;5045489;28;20195;-78
2021/11/07 08:33:34;;;;;;;6.65;3.88;;;;;;;;;;5031619;28;20287;-79
2021/11/07 08:36:07;;;;;;;5.80;3.72;;;;;;;;;;5044109;28;20658;-78
2021/11/07 08:38:37;;;;;;;4.57;3.20;;;;;;;;;;5049563;28;20195;-77
2021/11/07 08:41:06;;;;;;;5.05;2.95;;;;;;;;;;5050214;28;20194;-79
2021/11/07 09:00:18;;;;;;;6.53;3.85;;;;;;;;;;5041863;28;20245;-80
2021/11/07 09:02:56;;;;;;;7.05;3.05;;;;;;;;;;5052641;28;20229;-79
2021/11/07 09:05:28;;;;;;;4.68;3.65;;;;;;;;;;5053018;28;20286;-79
2021/11/07 09:08:11;;;;;;;2.80;2.60;;;;;;;;;;5051164;28;20218;-79
2021/11/07 09:10:38;;;;;;;5.15;2.95;;;;;;;;;;5054203;28;20223;-79
2021/11/07 09:13:07;;;;;;;4.90;2.75;;;;;;;;;;5044518;28;20199;-79
2021/11/07 09:15:36;;;;;;;6.03;2.92;;;;;;;;;;5044733;28;20249;-79
2021/11/07 09:18:04;;;;;;;6.75;2.92;;;;;;;;;;5055767;28;20195;-80
2021/11/07 09:20:37;;;;;;;5.32;3.83;;;;;;;;;;5053828;28;20215;-79
2021/11/07 09:23:08;;;;;;;5.25;2.63;;;;;;;;;;5061621;28;20653;-80
2021/11/07 09:25:39;;;;;;;7.88;3.72;;;;;;;;;;5057042;28;20281;-79
2021/11/07 09:28:09;;;;;;;6.72;3.00;;;;;;;;;;5053780;28;20256;-80
2021/11/07 09:30:42;;;;;;;5.38;2.85;;;;;;;;;;5052526;28;20649;-80
2021/11/07 09:33:14;;;;;;;6.50;3.85;;;;;;;;;;5043188;28;20217;-79
2021/11/07 09:35:56;;;;;;;4.20;3.35;;;;;;;;;;5056566;28;20190;-79
2021/11/07 09:38:28;;;;;;;5.30;2.78;;;;;;;;;;5050170;28;20236;-79
2021/11/07 09:41:11;;;;;;;7.72;3.08;;;;;;;;;;5066364;28;20278;-79
2021/11/07 09:43:45;;;;;;;5.20;3.25;;;;;;;;;;5052242;28;20565;-79
2021/11/07 09:46:33;;;;;;;5.03;3.20;;;;;;;;;;5041442;28;20198;-79
2021/11/07 09:49:03;;;;;;;6.22;3.63;;;;;;;;;;5053468;28;20272;-79
2021/11/07 09:51:34;;;;;;;5.32;3.22;;;;;;;;;;5037884;28;20705;-79
2021/11/07 09:54:03;;;;;;;9.15;3.20;;;;;;;;;;5042097;28;20205;-78
2021/11/07 09:56:30;;;;;;;7.53;4.07;;;;;;;;;;5051253;28;20673;-79
2021/11/07 09:58:59;;;;;;;9.95;2.75;;;;;;;;;;5051571;28;20207;-79
2021/11/07 10:01:27;;;;;;;4.07;2.53;;;;;;;;;;5052598;28;20187;-79
2021/11/07 10:03:55;;;;;;;8.82;3.20;;;;;;;;;;5051291;28;20240;-79
2021/11/07 10:06:27;;;;;;;3.45;2.55;;;;;;;;;;5053339;28;20206;-79
2021/11/07 10:08:56;;;;;;;6.97;3.15;;;;;;;;;;5046149;28;20310;-78
2021/11/07 10:11:29;;;;;;;8.63;3.40;;;;;;;;;;5053175;28;20206;-79
2021/11/07 10:14:06;;;;;;;5.72;4.25;;;;;;;;;;5048076;28;20223;-78
2021/11/07 10:16:40;;;;;;;9.38;2.88;;;;;;;;;;5053157;28;20217;-80
2021/11/07 10:19:15;;;;;;;6.28;3.20;;;;;;;;;;5053552;28;20194;-80
2021/11/07 10:21:46;;;;;;;7.68;3.15;;;;;;;;;;5043642;28;20225;-79
2021/11/07 10:24:17;;;;;;;4.80;2.22;;;;;;;;;;5046948;28;20214;-80
2021/11/07 10:26:46;;;;;;;9.73;2.75;;;;;;;;;;5041487;28;20268;-83
2021/11/07 10:29:22;;;;;;;4.85;2.83;;;;;;;;;;5048967;28;20219;-79
2021/11/07 10:31:56;;;;;;;6.85;3.08;;;;;;;;;;5052591;28;20190;-78
2021/11/07 10:34:33;;;;;;;7.03;2.65;;;;;;;;;;5057463;28;20232;-77
2021/11/07 10:40:00;;;;;;;9.40;3.17;;;;;;;;;;5038604;28;20198;-81
2021/11/07 10:42:44;;;;;;;5.05;2.60;;;;;;;;;;5040203;28;20221;-77
2021/11/07 10:45:17;;;;;;;5.57;2.88;;;;;;;;;;5035428;28;20290;-79
2021/11/07 10:48:12;;;;;;;6.80;3.20;;;;;;;;;;5043343;28;20272;-82
2021/11/07 10:53:26;;;;;;;9.32;2.83;;;;;;;;;;5044520;28;20211;-84
2021/11/07 10:55:56;;;;;;;3.75;2.20;;;;;;;;;;5040525;28;20201;-90
2021/11/07 10:58:26;;;;;;;5.07;2.25;;;;;;;;;;5046541;28;20203;-88
2021/11/07 11:00:54;;;;;;;6.72;2.88;;;;;;;;;;5050747;28;20280;-83
2021/11/07 11:03:22;;;;;;;7.68;2.60;;;;;;;;;;5052796;28;20196;-85
2021/11/07 11:05:52;;;;;;;9.05;2.47;;;;;;;;;;5053240;28;20673;-85
2021/11/07 11:08:22;;;;;;;7.03;1.95;;;;;;;;;;5054130;28;20561;-82
2021/11/07 11:10:58;;;;;;;7.07;2.40;;;;;;;;;;5046103;28;20550;-86
2021/11/07 11:13:36;;;;;;;6.95;3.28;;;;;;;;;;5048344;28;20206;-92
2021/11/07 11:16:26;;;;;;;3.40;1.85;;;;;;;;;;5046199;28;20306;-85
2021/11/07 11:21:52;;;;;;;4.30;1.83;;;;;;;;;;5045977;28;20321;-82
2021/11/07 11:24:26;;;;;;;8.43;3.40;;;;;;;;;;5041334;28;20273;-80
2021/11/07 11:27:02;;;;;;;11.65;3.05;;;;;;;;;;5059134;28;20198;-83
2021/11/07 11:32:42;;;;;;;6.13;4.35;;;;;;;;;;5044888;28;20252;-83
2021/11/07 11:35:13;;;;;;;7.20;2.80;;;;;;;;;;5049853;28;20251;-83
2021/11/07 11:37:48;;;;;;;4.43;2.13;;;;;;;;;;5051140;28;20206;-86
2021/11/07 11:40:20;;;;;;;4.78;2.13;;;;;;;;;;5050865;28;20198;-85
2021/11/07 11:42:49;;;;;;;7.97;1.85;;;;;;;;;;5047264;28;20226;-83
2021/11/07 11:45:19;;;;;;;6.85;2.10;;;;;;;;;;5048927;28;20202;-84
2021/11/07 11:48:09;;;;;;;5.88;2.40;;;;;;;;;;5040832;28;20237;-82
2021/11/07 11:50:52;;;;;;;6.18;2.40;;;;;;;;;;5044948;28;20581;-87
2021/11/07 11:53:42;;;;;;;2.58;1.83;;;;;;;;;;5050180;28;20302;-84
2021/11/07 11:56:24;;;;;;;5.80;2.20;;;;;;;;;;5051692;28;20201;-85
2021/11/07 11:58:56;;;;;;;8.55;3.20;;;;;;;;;;5045996;28;20735;-85
2021/11/07 12:01:25;;;;;;;2.92;2.03;;;;;;;;;;5040795;28;20224;-85
2021/11/07 12:04:09;;;;;;;6.40;2.05;;;;;;;;;;5048555;28;20195;-84
2021/11/07 12:06:45;;;;;;;6.78;2.20;;;;;;;;;;5038933;28;20225;-86
2021/11/07 12:12:08;;;;;;;7.50;2.53;;;;;;;;;;5049421;28;20195;-85
2021/11/07 12:14:50;;;;;;;8.90;2.13;;;;;;;;;;5051303;28;20546;-86
2021/11/07 12:17:26;;;;;;;10.23;2.45;;;;;;;;;;5041100;28;20230;-80
2021/11/07 12:19:55;;;;;;;3.22;2.10;;;;;;;;;;5044215;28;20214;-80
2021/11/07 12:22:24;;;;;;;4.57;1.60;;;;;;;;;;5047142;28;20209;-83
2021/11/07 12:25:01;;;;;;;5.13;2.38;;;;;;;;;;5069515;28;20197;-80
2021/11/07 12:27:30;;;;;;;6.60;2.00;;;;;;;;;;5052912;28;20211;-84
2021/11/07 12:29:58;;;;;;;5.28;2.00;;;;;;;;;;5047287;28;20234;-85
2021/11/07 12:32:26;;;;;;;6.93;2.55;;;;;;;;;;5034444;28;20205;-82
2021/11/07 12:35:05;;;;;;;2.80;1.30;;;;;;;;;;5051691;28;20209;-83
2021/11/07 12:40:43;;;;;;;5.07;1.83;;;;;;;;;;5040861;28;20210;-86
2021/11/07 12:43:11;;;;;;;7.72;2.80;;;;;;;;;;5052083;28;20203;-80
2021/11/07 12:45:41;;;;;;;4.57;2.38;;;;;;;;;;5051020;28;20286;-85
2021/11/07 12:48:09;;;;;;;5.93;2.28;;;;;;;;;;5048340;28;20249;-82
2021/11/07 12:50:58;;;;;;;6.18;3.10;;;;;;;;;;5048579;28;20218;-80
2021/11/07 12:53:26;;;;;;;6.63;1.98;;;;;;;;;;5048568;28;20221;-81
2021/11/07 12:55:53;;;;;;;5.15;1.88;;;;;;;;;;5059228;28;20224;-83
2021/11/07 12:58:20;;;;;;;9.13;2.70;;;;;;;;;;5046038;28;20665;-83
2021/11/07 13:00:48;;;;;;;7.50;2.47;;;;;;;;;;5048796;28;20223;-85
2021/11/07 13:03:18;;;;;;;4.30;2.10;;;;;;;;;;5039327;28;20195;-82
2021/11/07 13:05:45;;;;;;;4.68;1.92;;;;;;;;;;5049568;28;20357;-82
2021/11/07 13:08:19;;;;;;;5.18;1.63;;;;;;;;;;5048366;28;20191;-82
2021/11/07 13:10:51;;;;;;;6.45;1.90;;;;;;;;;;5045803;28;20226;-82
2021/11/07 13:13:24;;;;;;;6.45;2.10;;;;;;;;;;5043745;28;20214;-81
2021/11/07 13:16:00;;;;;;;5.20;1.75;;;;;;;;;;5047221;28;20278;-81
2021/11/07 13:27:02;;;;;;;5.53;2.05;;;;;;;;;;5043160;28;20202;-80
2021/11/07 13:29:40;;;;;;;4.68;1.40;;;;;;;;;;5048061;28;20314;-83
2021/11/07 13:32:29;;;;;;;6.50;2.15;;;;;;;;;;5039944;28;20566;-79
2021/11/07 13:34:57;;;;;;;7.47;2.45;;;;;;;;;;5047127;28;20214;-79
2021/11/07 13:37:26;;;;;;;5.40;2.10;;;;;;;;;;5045248;28;20662;-81
2021/11/07 13:40:04;;;;;;;6.45;1.80;;;;;;;;;;5043269;28;20207;-80
2021/11/07 13:42:34;;;;;;;9.55;2.03;;;;;;;;;;5047295;28;20202;-81
2021/11/07 13:45:03;;;;;;;2.25;1.55;;;;;;;;;;5049778;28;20568;-80
2021/11/07 13:47:31;;;;;;;7.30;2.40;;;;;;;;;;5053040;28;20253;-81
2021/11/07 13:49:59;;;;;;;5.57;1.92;;;;;;;;;;5049247;28;20226;-81
2021/11/07 13:52:29;;;;;;;6.18;2.38;;;;;;;;;;5054136;28;20194;-81
2021/11/07 13:54:58;;;;;;;8.82;2.40;;;;;;;;;;5046682;28;20195;-81
2021/11/07 13:57:27;;;;;;;6.57;2.00;;;;;;;;;;5035255;28;20196;-80
2021/11/07 13:59:55;;;;;;;9.40;2.55;;;;;;;;;;5057354;28;20235;-81
2021/11/07 14:02:22;;;;;;;5.65;1.90;;;;;;;;;;5045694;28;20219;-80
2021/11/07 14:04:51;;;;;;;15.65;2.72;;;;;;;;;;5048158;28;20195;-81
2021/11/07 14:07:20;;;;;;;7.55;2.30;;;;;;;;;;5053120;28;20224;-82
2021/11/07 14:09:59;;;;;;;8.25;4.03;;;;;;;;;;5051840;28;20756;-81
2021/11/07 14:12:32;;;;;;;7.38;2.17;;;;;;;;;;5046660;28;20198;-81
2021/11/07 14:15:06;;;;;;;3.85;2.22;;;;;;;;;;5053238;28;20191;-80
2021/11/07 14:17:33;;;;;;;6.57;2.20;;;;;;;;;;5050363;28;20194;-81
2021/11/07 14:20:00;;;;;;;3.20;1.67;;;;;;;;;;5051681;28;20199;-81
2021/11/07 14:22:27;;;;;;;4.53;1.70;;;;;;;;;;5052067;28;20201;-81
2021/11/07 14:24:54;;;;;;;5.53;1.50;;;;;;;;;;5055458;28;20788;-80
2021/11/07 14:27:32;;;;;;;4.88;1.77;;;;;;;;;;5052333;28;20565;-84
2021/11/07 14:30:03;;;;;;;8.40;2.95;;;;;;;;;;5049150;28;20256;-84
2021/11/07 14:32:33;;;;;;;3.75;2.00;;;;;;;;;;5043621;28;20557;-86
2021/11/07 14:35:04;;;;;;;3.45;2.13;;;;;;;;;;5034276;28;20281;-84
2021/11/07 14:37:35;;;;;;;2.83;1.70;;;;;;;;;;5052497;28;20201;-82
2021/11/07 14:40:08;;;;;;;7.47;2.63;;;;;;;;;;5047170;28;20226;-83
2021/11/07 14:42:49;;;;;;;3.28;1.40;;;;;;;;;;5044341;28;20596;-83
2021/11/07 14:45:26;;;;;;;2.88;1.70;;;;;;;;;;5052691;28;20186;-82
2021/11/07 14:48:17;;;;;;;6.70;2.22;;;;;;;;;;5050810;28;20556;-83
2021/11/07 14:50:57;;;;;;;4.43;2.03;;;;;;;;;;5052061;28;20268;-80
2021/11/07 14:53:27;;;;;;;4.40;2.03;;;;;;;;;;5047056;28;20288;-80
2021/11/07 14:56:01;;;;;;;6.03;2.05;;;;;;;;;;5047246;28;20226;-81
2021/11/07 14:58:41;;;;;;;5.55;1.70;;;;;;;;;;5050181;28;20209;-81
2021/11/07 15:01:22;;;;;;;7.28;2.55;;;;;;;;;;5040456;28;20211;-83
2021/11/07 15:03:53;;;;;;;4.03;1.70;;;;;;;;;;5053250;28;20219;-82
2021/11/07 15:06:33;;;;;;;5.32;1.90;;;;;;;;;;5044971;28;20206;-86
2021/11/07 15:09:04;;;;;;;5.13;1.55;;;;;;;;;;5050397;28;20230;-82
2021/11/07 15:14:32;;;;;;;4.28;1.80;;;;;;;;;;5067381;28;20264;-84
2021/11/07 15:17:14;;;;;;;3.10;2.47;;;;;;;;;;5044647;28;20214;-85
2021/11/07 15:19:48;;;;;;;3.08;1.83;;;;;;;;;;5052552;28;20209;-83
2021/11/07 15:22:20;;;;;;;2.47;1.83;;;;;;;;;;5051062;28;20256;-82
2021/11/07 15:24:52;;;;;;;4.88;2.33;;;;;;;;;;5043953;28;20199;-81
2021/11/07 15:27:22;;;;;;;2.88;1.40;;;;;;;;;;5048022;28;20614;-83
2021/11/07 15:29:57;;;;;;;4.55;2.65;;;;;;;;;;5047049;28;20782;-82
2021/11/07 15:32:26;;;;;;;6.38;2.08;;;;;;;;;;5049162;28;20217;-82
2021/11/07 15:34:53;;;;;;;3.45;1.35;;;;;;;;;;5049164;28;20791;-86
2021/11/07 15:37:25;;;;;;;7.18;2.22;;;;;;;;;;5044629;28;20626;-82
2021/11/07 15:39:54;;;;;;;4.60;1.98;;;;;;;;;;5047690;28;20222;-81
2021/11/07 15:42:23;;;;;;;6.85;3.13;;;;;;;;;;5038585;28;20194;-81
2021/11/07 15:44:55;;;;;;;5.32;1.63;;;;;;;;;;5042729;28;20198;-81
2021/11/07 15:47:24;;;;;;;5.03;1.60;;;;;;;;;;5035380;28;20194;-81
2021/11/07 15:49:55;;;;;;;3.30;1.40;;;;;;;;;;5042811;28;20223;-82
2021/11/07 15:52:32;;;;;;;4.53;1.70;;;;;;;;;;5041797;28;20202;-83
2021/11/07 15:55:04;;;;;;;6.47;2.00;;;;;;;;;;5051316;28;20240;-84
2021/11/07 15:57:42;;;;;;;3.50;1.60;;;;;;;;;;5044568;28;20206;-82